MX-0413 weather

Air Station No. 8 Loma Bonita
Loma Bonita, Oaxaca, Mexico

Public forecast

Using degrees Celsius for public forecast. Weather courtesy of forecast.io.

Closest aviation weather report (METAR) to Air Station No. 8 Loma Bonita

Closest report is General Heriberto Jara International Airport, 70.0 nm (129.7 km) NNW. Retrieved 2020/02/24 01:46 UTC (40 minutes ago):

MMVR 240146Z 13003KT 6SM SKC 23/21 A2996 RMK HZY ISOL CI

Closest aviation forecast (TAF) to Air Station No. 8 Loma Bonita

Forecast is more than 6 hours old.

Closest forecast is General Heriberto Jara International Airport, 70.0 nm (129.7 km) NNW. Retrieved 2020/02/23 18:00 UTC (8 hours ago):

TAF MMVR 231656Z 2318/2418 12015KT P6SM SCT020 TX29/2320Z TN21/2412Z TEMPO 2321/2401 BKN020 FM240300 12010KT P6SM BKN020 TEMPO 2412/2415 BKN010